createdAt,value
2022-11-25T00:01:32.748Z,1.00
2022-11-25T00:04:03.257Z,1.00
2022-11-25T00:06:33.831Z,1.00
2022-11-25T00:09:05.125Z,1.00
2022-11-25T00:11:36.513Z,1.00
2022-11-25T00:14:05.940Z,1.00
2022-11-25T00:16:34.684Z,1.00
2022-11-25T00:19:04.966Z,1.00
2022-11-25T00:21:34.905Z,1.00
2022-11-25T00:24:05.815Z,1.00
2022-11-25T00:26:36.229Z,1.00
2022-11-25T00:29:07.417Z,1.00
2022-11-25T00:31:40.000Z,1.00
2022-11-25T00:34:14.898Z,1.00
2022-11-25T00:36:43.404Z,1.00
2022-11-25T00:39:13.723Z,1.00
2022-11-25T00:42:00.794Z,1.00
2022-11-25T00:44:39.749Z,1.00
2022-11-25T00:47:11.223Z,1.00
2022-11-25T00:49:43.285Z,1.00
2022-11-25T00:52:15.971Z,1.00
2022-11-25T00:54:45.824Z,1.00
2022-11-25T00:57:14.925Z,1.00
2022-11-25T00:59:43.401Z,1.00
2022-11-25T01:02:12.955Z,1.00
2022-11-25T01:04:43.166Z,1.00
2022-11-25T01:07:11.839Z,1.00
2022-11-25T01:09:40.560Z,1.00
2022-11-25T01:12:09.796Z,1.00
2022-11-25T01:14:38.978Z,1.00
2022-11-25T01:17:07.701Z,1.00
2022-11-25T01:19:40.068Z,1.00
2022-11-25T01:22:10.824Z,1.00
2022-11-25T01:24:39.350Z,1.00
2022-11-25T01:27:07.846Z,1.00
2022-11-25T01:29:36.357Z,1.00
2022-11-25T01:32:05.014Z,1.00
2022-11-25T01:34:34.649Z,1.00
2022-11-25T01:37:03.998Z,1.00
2022-11-25T01:39:34.079Z,1.00
2022-11-25T01:42:03.068Z,1.00
2022-11-25T01:44:33.301Z,1.00
2022-11-25T01:47:06.532Z,1.00
2022-11-25T01:49:40.579Z,1.00
2022-11-25T01:52:14.316Z,1.00
2022-11-25T01:54:50.154Z,1.00
2022-11-25T01:57:23.286Z,1.00
2022-11-25T01:59:57.221Z,1.00
2022-11-25T02:02:25.991Z,1.00
2022-11-25T02:04:54.580Z,1.00
2022-11-25T02:07:32.945Z,1.00
2022-11-25T02:10:05.115Z,1.00
2022-11-25T02:12:36.720Z,1.00
2022-11-25T02:15:06.323Z,1.00
2022-11-25T02:17:35.430Z,1.00
2022-11-25T02:20:06.475Z,1.00
2022-11-25T02:22:52.714Z,1.00
2022-11-25T02:25:25.699Z,1.00
2022-11-25T02:27:59.113Z,1.00
2022-11-25T02:30:27.796Z,1.00
2022-11-25T02:32:56.445Z,1.00
2022-11-25T02:35:28.020Z,1.00
2022-11-25T02:38:00.272Z,1.00
2022-11-25T02:40:31.233Z,1.00
2022-11-25T02:43:01.322Z,1.00
2022-11-25T02:45:40.697Z,1.00
2022-11-25T02:48:09.315Z,1.00
2022-11-25T02:50:37.830Z,1.00
2022-11-25T02:53:06.386Z,1.00
2022-11-25T02:55:36.480Z,1.00
2022-11-25T02:58:05.192Z,1.00
2022-11-25T03:00:33.837Z,1.00
2022-11-25T03:03:02.826Z,1.00
2022-11-25T03:05:31.378Z,1.00
2022-11-25T03:08:01.581Z,1.00
2022-11-25T03:10:31.236Z,1.00
2022-11-25T03:13:02.644Z,1.00
2022-11-25T03:15:31.410Z,1.00
2022-11-25T03:18:02.317Z,1.00
2022-11-25T03:20:30.960Z,1.00
2022-11-25T03:22:59.490Z,1.00
2022-11-25T03:25:28.435Z,1.00
2022-11-25T03:27:57.801Z,1.00
2022-11-25T03:30:29.766Z,1.00
2022-11-25T03:33:00.748Z,1.00
2022-11-25T03:35:29.810Z,1.00
2022-11-25T03:37:58.341Z,1.00
2022-11-25T03:40:27.207Z,1.00
2022-11-25T03:42:56.821Z,1.00
2022-11-25T03:45:25.733Z,1.00
2022-11-25T03:47:57.489Z,1.00
2022-11-25T03:50:26.005Z,1.00
2022-11-25T03:52:56.100Z,1.00
2022-11-25T03:55:24.712Z,1.00
2022-11-25T03:57:53.394Z,1.00
2022-11-25T04:00:22.517Z,1.00
2022-11-25T04:03:02.981Z,1.00
2022-11-25T04:05:33.734Z,1.00
2022-11-25T04:08:07.468Z,1.00
2022-11-25T04:10:37.355Z,1.00
2022-11-25T04:13:06.677Z,1.00
2022-11-25T04:15:47.081Z,1.00
2022-11-25T04:18:19.925Z,1.00
2022-11-25T04:20:52.460Z,1.00
2022-11-25T04:23:21.140Z,1.00
2022-11-25T04:25:58.505Z,1.00
2022-11-25T04:28:33.466Z,1.00
2022-11-25T04:31:07.418Z,1.00
2022-11-25T04:33:39.769Z,1.00
2022-11-25T04:36:09.908Z,1.00
2022-11-25T04:38:38.642Z,1.00
2022-11-25T04:41:08.987Z,1.00
2022-11-25T04:43:41.680Z,1.00
2022-11-25T04:46:18.207Z,1.00
2022-11-25T04:48:53.285Z,1.00
2022-11-25T04:51:22.957Z,1.00
2022-11-25T04:53:55.435Z,1.00
2022-11-25T04:56:26.156Z,1.00
2022-11-25T04:59:13.439Z,1.00
2022-11-25T05:01:46.160Z,1.00
2022-11-25T05:04:29.787Z,1.00
2022-11-25T05:06:58.488Z,1.00
2022-11-25T05:09:27.992Z,1.00
2022-11-25T05:12:11.829Z,1.00
2022-11-25T05:14:40.618Z,1.00
2022-11-25T05:17:12.874Z,1.00
2022-11-25T05:19:43.105Z,1.00
2022-11-25T05:22:12.718Z,1.00
2022-11-25T05:24:42.633Z,1.00
2022-11-25T05:27:11.328Z,1.00
2022-11-25T05:29:39.902Z,1.00
2022-11-25T05:32:10.412Z,1.00
2022-11-25T05:34:39.696Z,1.00
2022-11-25T05:37:13.750Z,1.00
2022-11-25T05:39:50.053Z,1.00
2022-11-25T05:42:43.274Z,1.00
2022-11-25T05:45:12.456Z,1.00
2022-11-25T05:47:42.800Z,1.00
2022-11-25T05:50:12.493Z,1.00
2022-11-25T05:52:42.539Z,1.00
2022-11-25T05:55:11.398Z,1.00
2022-11-25T05:57:40.759Z,1.00
2022-11-25T06:00:12.179Z,1.00
2022-11-25T06:02:53.363Z,1.00
2022-11-25T06:05:23.422Z,1.00
2022-11-25T06:07:54.848Z,1.00
2022-11-25T06:10:24.238Z,1.00
2022-11-25T06:12:53.846Z,1.00
2022-11-25T06:15:22.346Z,1.00
2022-11-25T06:17:53.345Z,1.00
2022-11-25T06:20:27.290Z,1.00
2022-11-25T06:22:59.701Z,1.00
2022-11-25T06:25:33.692Z,1.00
2022-11-25T06:28:18.829Z,1.00
2022-11-25T06:30:51.545Z,1.00
2022-11-25T06:33:28.458Z,1.00
2022-11-25T06:36:04.988Z,1.00
2022-11-25T06:38:35.451Z,1.00
2022-11-25T06:41:05.232Z,1.00
2022-11-25T06:43:34.114Z,1.00
2022-11-25T06:46:07.299Z,1.00
2022-11-25T06:48:36.185Z,1.00
2022-11-25T06:51:07.528Z,1.00
2022-11-25T06:53:38.085Z,1.00
2022-11-25T06:56:09.658Z,1.00
2022-11-25T06:58:41.170Z,1.00
2022-11-25T07:01:15.227Z,1.00
2022-11-25T07:03:44.954Z,1.00
2022-11-25T07:06:14.147Z,1.00
2022-11-25T07:08:45.007Z,1.00
2022-11-25T07:11:18.326Z,1.00
2022-11-25T07:13:47.984Z,1.00
2022-11-25T07:16:16.809Z,1.00
2022-11-25T07:18:45.492Z,1.00
2022-11-25T07:21:15.817Z,1.00
2022-11-25T07:23:46.977Z,1.00
2022-11-25T07:26:17.524Z,1.00
2022-11-25T07:28:46.784Z,1.00
2022-11-25T07:31:24.367Z,1.00
2022-11-25T07:33:54.391Z,1.00
2022-11-25T07:36:24.134Z,1.00
2022-11-25T07:38:54.285Z,1.00
2022-11-25T07:41:25.102Z,1.00
2022-11-25T07:43:56.189Z,1.00
2022-11-25T07:46:28.516Z,1.00
2022-11-25T07:48:59.371Z,1.00
2022-11-25T07:51:29.661Z,1.00
2022-11-25T07:54:01.168Z,1.00
2022-11-25T07:56:30.730Z,1.00
2022-11-25T07:58:59.482Z,1.00
2022-11-25T08:01:28.473Z,1.00
2022-11-25T08:03:57.175Z,1.00
2022-11-25T08:06:27.932Z,1.00
2022-11-25T08:08:57.727Z,1.00
2022-11-25T08:11:31.349Z,1.00
2022-11-25T08:14:00.751Z,1.00
2022-11-25T08:16:31.644Z,1.00
2022-11-25T08:19:01.435Z,1.00
2022-11-25T08:21:30.324Z,1.00
2022-11-25T08:23:59.327Z,1.00
2022-11-25T08:26:31.315Z,1.00
2022-11-25T08:29:00.888Z,1.00
2022-11-25T08:31:31.900Z,1.00
2022-11-25T08:34:01.387Z,1.00
2022-11-25T08:36:31.162Z,1.00
2022-11-25T08:39:01.277Z,1.00
2022-11-25T08:41:33.823Z,1.00
2022-11-25T08:44:04.697Z,1.00
2022-11-25T08:46:36.664Z,1.00
2022-11-25T08:49:06.586Z,1.00
2022-11-25T08:51:37.033Z,1.00
2022-11-25T08:54:06.507Z,1.00
2022-11-25T08:56:37.132Z,1.00
2022-11-25T08:59:06.685Z,1.00
2022-11-25T09:01:35.190Z,1.00
2022-11-25T09:04:03.871Z,1.00
2022-11-25T09:06:32.393Z,1.00
2022-11-25T09:09:02.039Z,1.00
2022-11-25T09:11:30.750Z,1.00
2022-11-25T09:14:00.909Z,1.00
2022-11-25T09:16:29.530Z,1.00
2022-11-25T09:19:00.152Z,1.00
2022-11-25T09:21:28.693Z,1.00
2022-11-25T09:23:57.348Z,1.00
2022-11-25T09:26:28.064Z,1.00
2022-11-25T09:28:57.485Z,1.00
2022-11-25T09:31:28.107Z,1.00
2022-11-25T09:33:58.051Z,1.00
2022-11-25T09:36:26.674Z,1.00
2022-11-25T09:38:56.084Z,1.00
2022-11-25T09:41:59.001Z,1.00
2022-11-25T09:45:02.347Z,1.00
2022-11-25T09:47:47.621Z,1.00
2022-11-25T09:50:28.316Z,1.00
2022-11-25T09:53:10.157Z,1.00
2022-11-25T09:55:44.657Z,1.00
2022-11-25T09:58:27.117Z,1.00
2022-11-25T10:00:55.914Z,1.00
2022-11-25T10:03:35.843Z,1.00
2022-11-25T10:06:09.419Z,1.00
2022-11-25T10:08:40.897Z,1.00
2022-11-25T10:11:21.932Z,1.00
2022-11-25T10:13:56.019Z,1.00
2022-11-25T10:16:35.682Z,1.00
2022-11-25T10:19:15.001Z,1.00
2022-11-25T10:21:43.824Z,1.00
2022-11-25T10:24:17.316Z,1.00
2022-11-25T10:26:49.823Z,1.00
2022-11-25T10:29:28.152Z,1.00
2022-11-25T10:32:06.346Z,1.00
2022-11-25T10:34:41.797Z,1.00
2022-11-25T10:37:24.327Z,1.00
2022-11-25T10:39:52.828Z,1.00
2022-11-25T10:42:23.766Z,1.00
2022-11-25T10:44:54.956Z,1.00
2022-11-25T10:47:35.927Z,1.00
2022-11-25T10:50:18.571Z,1.00
2022-11-25T10:52:55.506Z,1.00
2022-11-25T10:55:26.425Z,1.00
2022-11-25T10:57:56.090Z,1.00
2022-11-25T11:00:30.843Z,1.00
2022-11-25T11:03:01.529Z,1.00
2022-11-25T11:05:32.646Z,1.00
2022-11-25T11:08:20.744Z,1.00
2022-11-25T11:11:16.477Z,1.00
2022-11-25T11:13:46.140Z,1.00
2022-11-25T11:16:29.284Z,1.00
2022-11-25T11:18:58.547Z,1.00
2022-11-25T11:21:32.421Z,1.00
2022-11-25T11:24:04.424Z,1.00
2022-11-25T11:26:36.786Z,1.00
2022-11-25T11:29:12.731Z,1.00
2022-11-25T11:31:48.657Z,1.00
2022-11-25T11:34:36.485Z,1.00
2022-11-25T11:37:23.664Z,1.00
2022-11-25T11:40:02.840Z,12.70
2022-11-25T11:42:44.369Z,1.00
2022-11-25T11:45:43.151Z,1.00
2022-11-25T11:48:21.822Z,1.00
2022-11-25T11:50:53.127Z,10.00
2022-11-25T11:53:31.632Z,6.90
2022-11-25T11:59:10.694Z,35.90
2022-11-25T12:01:49.765Z,56.50
2022-11-25T12:04:23.683Z,54.90
2022-11-25T12:07:01.868Z,63.30
2022-11-25T12:09:34.747Z,52.70
2022-11-25T12:12:08.222Z,57.90
2022-11-25T12:14:44.082Z,46.40
2022-11-25T12:17:18.449Z,48.10
2022-11-25T12:19:54.854Z,58.40
2022-11-25T12:22:27.925Z,67.40
2022-11-25T12:25:05.113Z,69.80
2022-11-25T12:27:38.889Z,53.30
2022-11-25T12:30:12.714Z,66.30
2022-11-25T12:32:49.832Z,62.40
2022-11-25T12:35:25.925Z,61.90
2022-11-25T12:38:02.290Z,54.30
2022-11-25T12:40:36.722Z,50.40
2022-11-25T12:43:27.764Z,57.40
2022-11-25T12:46:12.194Z,41.50
2022-11-25T12:48:43.888Z,42.20
2022-11-25T12:51:24.964Z,43.70
2022-11-25T12:54:05.164Z,52.00
2022-11-25T12:56:49.170Z,59.40
2022-11-25T12:59:48.762Z,55.20
2022-11-25T13:02:48.940Z,56.70
2022-11-25T13:05:40.884Z,67.40
2022-11-25T13:08:28.518Z,61.30
2022-11-25T13:11:24.678Z,55.60
2022-11-25T13:13:58.438Z,68.00
2022-11-25T13:16:29.210Z,57.90
2022-11-25T13:18:59.463Z,56.30
2022-11-25T13:21:29.190Z,54.40
2022-11-25T13:23:59.193Z,57.20
2022-11-25T13:26:51.130Z,45.00
2022-11-25T13:29:59.148Z,52.40
2022-11-25T13:32:40.725Z,52.40
2022-11-25T13:35:48.471Z,51.10
2022-11-25T13:39:00.819Z,54.40
2022-11-25T13:41:41.638Z,65.60
2022-11-25T13:44:24.261Z,53.70
2022-11-25T13:46:54.556Z,48.80
2022-11-25T13:49:26.076Z,63.90
2022-11-25T13:51:58.009Z,64.40
2022-11-25T13:54:33.625Z,60.20
2022-11-25T13:57:26.834Z,69.90
2022-11-25T14:00:00.761Z,47.20
2022-11-25T14:02:42.077Z,45.80
2022-11-25T14:05:31.745Z,57.40
2022-11-25T14:08:12.271Z,12.00
2022-11-25T14:10:46.836Z,36.00
2022-11-25T14:13:34.258Z,38.80
2022-11-25T14:16:14.407Z,37.40
2022-11-25T14:22:02.273Z,46.40
2022-11-25T14:24:38.623Z,43.00
2022-11-25T14:27:15.463Z,34.00
2022-11-25T14:29:47.634Z,43.40
2022-11-25T14:32:20.914Z,59.70
2022-11-25T14:34:54.043Z,28.60
2022-11-25T14:37:29.311Z,35.00
2022-11-25T14:40:03.565Z,33.30
2022-11-25T14:42:36.463Z,29.50
2022-11-25T14:45:20.372Z,33.80
2022-11-25T14:47:48.853Z,43.10
2022-11-25T14:53:08.901Z,47.30
2022-11-25T14:55:39.476Z,43.70
2022-11-25T14:58:08.098Z,54.70
2022-11-25T15:00:50.517Z,49.50
2022-11-25T15:03:21.280Z,56.40
2022-11-25T15:05:57.285Z,49.60
2022-11-25T15:08:27.584Z,48.40
2022-11-25T15:11:00.193Z,56.10
2022-11-25T15:13:34.430Z,58.40
2022-11-25T15:16:09.497Z,63.90
2022-11-25T15:18:39.446Z,70.30
2022-11-25T15:21:08.199Z,66.50
2022-11-25T15:23:39.281Z,64.80
2022-11-25T15:26:19.862Z,53.80
2022-11-25T15:28:48.909Z,64.10
2022-11-25T15:31:21.062Z,69.30
2022-11-25T15:33:54.665Z,62.10
2022-11-25T15:36:25.648Z,63.40
2022-11-25T15:38:55.233Z,59.70
2022-11-25T15:41:35.269Z,59.20
2022-11-25T15:44:06.725Z,56.70
2022-11-25T15:46:37.094Z,71.50
2022-11-25T15:49:07.736Z,65.60
2022-11-25T15:51:42.840Z,69.90
2022-11-25T15:54:19.638Z,53.00
2022-11-25T15:56:52.062Z,44.90
2022-11-25T15:59:42.973Z,53.50
2022-11-25T16:02:33.706Z,49.40
2022-11-25T16:05:29.451Z,68.50
2022-11-25T16:08:25.593Z,66.90
2022-11-25T16:10:57.080Z,75.90
2022-11-25T16:13:38.155Z,73.40
2022-11-25T16:16:28.595Z,72.30
2022-11-25T16:19:21.951Z,80.80
2022-11-25T16:21:57.570Z,83.60
2022-11-25T16:24:48.895Z,85.30
2022-11-25T16:27:20.718Z,90.40
2022-11-25T16:29:53.604Z,90.30
2022-11-25T16:32:24.068Z,82.80
2022-11-25T16:34:52.696Z,71.10
2022-11-25T16:37:21.232Z,75.70
2022-11-25T16:39:49.787Z,96.60
2022-11-25T16:42:21.243Z,93.60
2022-11-25T16:44:52.923Z,93.50
2022-11-25T16:47:23.180Z,90.00
2022-11-25T16:49:51.670Z,81.20
2022-11-25T16:52:20.729Z,81.50
2022-11-25T16:54:49.262Z,71.80
2022-11-25T16:57:20.517Z,74.70
2022-11-25T17:00:01.044Z,77.30
2022-11-25T17:02:32.043Z,76.30
2022-11-25T17:05:08.333Z,80.10
2022-11-25T17:07:36.948Z,72.10
2022-11-25T17:10:06.449Z,75.10
2022-11-25T17:12:38.709Z,76.60
2022-11-25T17:15:15.764Z,81.20
2022-11-25T17:17:46.006Z,74.60
2022-11-25T17:20:17.393Z,66.80
2022-11-25T17:22:46.056Z,74.20
2022-11-25T17:25:14.725Z,73.50
2022-11-25T17:27:46.218Z,65.30
2022-11-25T17:30:19.585Z,69.00
2022-11-25T17:32:49.035Z,69.60
2022-11-25T17:35:19.881Z,65.30
2022-11-25T17:37:49.128Z,64.80
2022-11-25T17:40:18.129Z,67.10
2022-11-25T17:42:48.989Z,71.30
2022-11-25T17:45:20.644Z,74.00
2022-11-25T17:47:49.960Z,81.70
2022-11-25T17:50:21.222Z,75.30
2022-11-25T17:52:50.253Z,73.70
2022-11-25T17:55:22.158Z,78.00
2022-11-25T17:57:51.149Z,72.00
2022-11-25T18:00:23.343Z,69.50
2022-11-25T18:02:53.324Z,73.50
2022-11-25T18:05:24.044Z,78.80
2022-11-25T18:07:53.057Z,79.10
2022-11-25T18:10:23.982Z,85.10
2022-11-25T18:12:54.344Z,77.50
2022-11-25T18:15:26.653Z,85.50
2022-11-25T18:18:02.256Z,85.80
2022-11-25T18:20:32.964Z,90.30
2022-11-25T18:23:02.335Z,90.70
2022-11-25T18:25:32.864Z,87.10
2022-11-25T18:28:02.414Z,80.70
2022-11-25T18:30:34.604Z,80.80
2022-11-25T18:33:05.690Z,83.30
2022-11-25T18:35:37.155Z,80.00
2022-11-25T18:38:06.803Z,80.50
2022-11-25T18:40:39.813Z,86.10
2022-11-25T18:43:14.653Z,91.30
2022-11-25T18:45:45.765Z,92.80
2022-11-25T18:48:17.259Z,91.90
2022-11-25T18:50:46.954Z,96.00
2022-11-25T18:53:15.587Z,95.60
2022-11-25T18:55:44.932Z,95.10
2022-11-25T18:58:18.581Z,94.70
2022-11-25T19:00:50.168Z,95.90
2022-11-25T19:03:21.211Z,90.50
2022-11-25T19:05:50.425Z,93.00
2022-11-25T19:08:19.677Z,87.90
2022-11-25T19:10:50.624Z,64.20
2022-11-25T19:13:22.813Z,84.40
2022-11-25T19:15:53.163Z,62.60
2022-11-25T19:18:28.048Z,88.90
2022-11-25T19:20:56.954Z,94.00
2022-11-25T19:23:28.859Z,93.10
2022-11-25T19:26:02.264Z,91.90
2022-11-25T19:28:31.985Z,95.10
2022-11-25T19:31:04.732Z,95.40
2022-11-25T19:33:36.900Z,93.90
2022-11-25T19:36:05.772Z,90.40
2022-11-25T19:38:35.005Z,88.00
2022-11-25T19:41:03.740Z,86.90
2022-11-25T19:43:32.337Z,90.70
2022-11-25T19:46:03.611Z,81.50
2022-11-25T19:48:38.994Z,73.50
2022-11-25T19:51:07.753Z,73.10
2022-11-25T19:53:37.040Z,87.50
2022-11-25T19:56:05.681Z,79.70
2022-11-25T19:58:34.279Z,89.30
2022-11-25T20:01:06.754Z,86.60
2022-11-25T20:03:36.935Z,90.50
2022-11-25T20:06:06.623Z,92.10
2022-11-25T20:08:35.162Z,66.60
2022-11-25T20:11:03.853Z,75.30
2022-11-25T20:13:33.861Z,58.60
2022-11-25T20:16:04.449Z,63.40
2022-11-25T20:18:41.354Z,61.40
2022-11-25T20:21:17.811Z,66.30
2022-11-25T20:23:48.506Z,64.50
2022-11-25T20:26:19.406Z,60.90
2022-11-25T20:28:48.777Z,68.00
2022-11-25T20:31:19.456Z,64.80
2022-11-25T20:33:48.623Z,76.20
2022-11-25T20:36:20.101Z,85.60
2022-11-25T20:38:54.628Z,74.30
2022-11-25T20:41:27.649Z,62.20
2022-11-25T20:43:57.813Z,51.10
2022-11-25T20:46:30.664Z,4.40
2022-11-25T20:49:01.854Z,13.60
2022-11-25T20:51:30.721Z,31.70
2022-11-25T20:54:01.799Z,17.10
2022-11-25T20:56:30.461Z,1.00
2022-11-25T20:58:59.022Z,1.00
2022-11-25T21:01:28.928Z,1.00
2022-11-25T21:03:57.514Z,1.00
2022-11-25T21:06:28.841Z,1.00
2022-11-25T21:08:59.480Z,1.00
2022-11-25T21:11:32.967Z,1.00
2022-11-25T21:14:01.708Z,1.00
2022-11-25T21:16:31.806Z,1.00
2022-11-25T21:19:00.369Z,1.00
2022-11-25T21:21:32.795Z,1.00
2022-11-25T21:24:08.339Z,1.00
2022-11-25T21:26:36.863Z,1.00
2022-11-25T21:29:05.423Z,1.00
2022-11-25T21:31:35.331Z,1.00
2022-11-25T21:34:10.317Z,1.00
2022-11-25T21:36:40.264Z,1.00
2022-11-25T21:39:16.076Z,1.00
2022-11-25T21:41:44.639Z,1.00
2022-11-25T21:44:22.805Z,1.00
2022-11-25T21:46:53.832Z,1.00
2022-11-25T21:49:22.504Z,1.00
2022-11-25T21:51:51.449Z,1.00
2022-11-25T21:54:19.982Z,1.00
2022-11-25T21:56:48.580Z,1.00
2022-11-25T21:59:20.313Z,1.00
2022-11-25T22:01:49.099Z,1.00
2022-11-25T22:04:21.071Z,1.00
2022-11-25T22:06:51.185Z,1.00
2022-11-25T22:09:20.237Z,1.00
2022-11-25T22:11:50.498Z,1.00
2022-11-25T22:14:28.997Z,1.00
2022-11-25T22:16:58.361Z,1.00
2022-11-25T22:19:30.558Z,1.00
2022-11-25T22:21:59.190Z,1.00
2022-11-25T22:24:27.812Z,1.00
2022-11-25T22:26:58.348Z,1.00
2022-11-25T22:29:34.402Z,1.00
2022-11-25T22:32:05.025Z,1.00
2022-11-25T22:34:38.307Z,1.00
2022-11-25T22:37:15.796Z,1.00
2022-11-25T22:39:44.294Z,1.00
2022-11-25T22:42:21.261Z,1.00
2022-11-25T22:44:51.447Z,1.00
2022-11-25T22:47:28.502Z,1.00
2022-11-25T22:49:58.534Z,1.00
2022-11-25T22:52:29.657Z,1.00
2022-11-25T22:55:00.817Z,1.00
2022-11-25T22:57:29.328Z,1.00
2022-11-25T22:59:57.905Z,1.00
2022-11-25T23:02:33.141Z,1.00
2022-11-25T23:05:03.532Z,1.00
2022-11-25T23:07:32.512Z,1.00
2022-11-25T23:10:01.126Z,1.00
2022-11-25T23:12:29.973Z,1.00
2022-11-25T23:14:58.785Z,1.00
2022-11-25T23:17:27.805Z,1.00
2022-11-25T23:19:57.533Z,1.00
2022-11-25T23:22:27.529Z,1.00
2022-11-25T23:24:56.231Z,1.00
2022-11-25T23:27:24.987Z,1.00
2022-11-25T23:29:53.770Z,1.00
2022-11-25T23:32:22.712Z,1.00
2022-11-25T23:34:51.849Z,1.00
2022-11-25T23:37:20.752Z,1.00
2022-11-25T23:39:54.067Z,1.00
2022-11-25T23:42:22.942Z,1.00
2022-11-25T23:44:51.510Z,1.00
2022-11-25T23:47:22.451Z,1.00
2022-11-25T23:49:53.321Z,1.00
2022-11-25T23:52:25.051Z,1.00
2022-11-25T23:54:55.362Z,1.00
2022-11-25T23:57:26.183Z,1.00
2022-11-25T23:59:55.099Z,1.00
